sensor_id;sensor_type;location;lat;lon;timestamp;P1;durP1;ratioP1;P2;durP2;ratioP2
26042;SDS011;13818;52.156;5.382;2023-03-14T00:00:59;25.02;;;4.32;;
26042;SDS011;13818;52.156;5.382;2023-03-14T00:03:27;16.67;;;3.55;;
26042;SDS011;13818;52.156;5.382;2023-03-14T00:05:54;12.70;;;4.03;;
26042;SDS011;13818;52.156;5.382;2023-03-14T00:08:21;15.18;;;3.97;;
26042;SDS011;13818;52.156;5.382;2023-03-14T00:10:51;22.85;;;3.83;;
26042;SDS011;13818;52.156;5.382;2023-03-14T00:13:17;22.65;;;3.53;;
26042;SDS011;13818;52.156;5.382;2023-03-14T00:15:44;20.20;;;3.28;;
26042;SDS011;13818;52.156;5.382;2023-03-14T00:18:10;18.90;;;3.20;;
26042;SDS011;13818;52.156;5.382;2023-03-14T00:20:36;18.77;;;3.75;;
26042;SDS011;13818;52.156;5.382;2023-03-14T00:23:03;16.15;;;3.67;;
26042;SDS011;13818;52.156;5.382;2023-03-14T00:25:29;17.67;;;3.42;;
26042;SDS011;13818;52.156;5.382;2023-03-14T00:27:57;17.65;;;3.72;;
26042;SDS011;13818;52.156;5.382;2023-03-14T00:30:24;16.92;;;3.15;;
26042;SDS011;13818;52.156;5.382;2023-03-14T00:32:50;18.80;;;3.13;;
26042;SDS011;13818;52.156;5.382;2023-03-14T00:35:17;23.90;;;3.40;;
26042;SDS011;13818;52.156;5.382;2023-03-14T00:37:43;14.15;;;2.38;;
26042;SDS011;13818;52.156;5.382;2023-03-14T00:40:10;16.15;;;2.63;;
26042;SDS011;13818;52.156;5.382;2023-03-14T00:42:37;11.00;;;2.35;;
26042;SDS011;13818;52.156;5.382;2023-03-14T00:45:05;16.05;;;2.47;;
26042;SDS011;13818;52.156;5.382;2023-03-14T00:47:33;20.13;;;3.55;;
26042;SDS011;13818;52.156;5.382;2023-03-14T00:50:00;13.77;;;2.03;;
26042;SDS011;13818;52.156;5.382;2023-03-14T00:52:27;11.00;;;1.92;;
26042;SDS011;13818;52.156;5.382;2023-03-14T00:54:53;11.98;;;2.05;;
26042;SDS011;13818;52.156;5.382;2023-03-14T00:57:20;10.30;;;1.33;;
26042;SDS011;13818;52.156;5.382;2023-03-14T00:59:46;9.90;;;1.30;;
26042;SDS011;13818;52.156;5.382;2023-03-14T01:02:14;10.43;;;2.00;;
26042;SDS011;13818;52.156;5.382;2023-03-14T01:04:41;11.00;;;1.70;;
26042;SDS011;13818;52.156;5.382;2023-03-14T01:07:13;7.00;;;1.30;;
26042;SDS011;13818;52.156;5.382;2023-03-14T01:09:39;7.50;;;1.60;;
26042;SDS011;13818;52.156;5.382;2023-03-14T01:12:06;6.53;;;1.23;;
26042;SDS011;13818;52.156;5.382;2023-03-14T01:14:33;9.70;;;1.20;;
26042;SDS011;13818;52.156;5.382;2023-03-14T01:17:00;13.27;;;1.50;;
26042;SDS011;13818;52.156;5.382;2023-03-14T01:19:28;11.63;;;1.50;;
26042;SDS011;13818;52.156;5.382;2023-03-14T01:21:55;6.97;;;1.98;;
26042;SDS011;13818;52.156;5.382;2023-03-14T01:24:21;14.93;;;2.03;;
26042;SDS011;13818;52.156;5.382;2023-03-14T01:26:48;7.45;;;1.45;;
26042;SDS011;13818;52.156;5.382;2023-03-14T01:29:14;9.15;;;1.70;;
26042;SDS011;13818;52.156;5.382;2023-03-14T01:31:41;5.30;;;1.25;;
26042;SDS011;13818;52.156;5.382;2023-03-14T01:34:07;4.70;;;1.08;;
26042;SDS011;13818;52.156;5.382;2023-03-14T01:36:35;13.60;;;1.77;;
26042;SDS011;13818;52.156;5.382;2023-03-14T01:39:02;10.18;;;1.67;;
26042;SDS011;13818;52.156;5.382;2023-03-14T01:41:28;7.88;;;2.25;;
26042;SDS011;13818;52.156;5.382;2023-03-14T01:43:55;14.38;;;2.30;;
26042;SDS011;13818;52.156;5.382;2023-03-14T01:49:19;7.20;;;1.70;;
26042;SDS011;13818;52.156;5.382;2023-03-14T01:51:51;10.25;;;1.40;;
26042;SDS011;13818;52.156;5.382;2023-03-14T01:54:23;8.80;;;1.88;;
26042;SDS011;13818;52.156;5.382;2023-03-14T01:56:55;8.93;;;1.60;;
26042;SDS011;13818;52.156;5.382;2023-03-14T01:59:24;6.45;;;1.30;;
26042;SDS011;13818;52.156;5.382;2023-03-14T02:01:52;10.32;;;1.38;;
26042;SDS011;13818;52.156;5.382;2023-03-14T02:04:21;12.45;;;2.00;;
26042;SDS011;13818;52.156;5.382;2023-03-14T02:06:49;6.55;;;1.40;;
26042;SDS011;13818;52.156;5.382;2023-03-14T02:09:22;13.27;;;1.60;;
26042;SDS011;13818;52.156;5.382;2023-03-14T02:11:51;7.10;;;1.50;;
26042;SDS011;13818;52.156;5.382;2023-03-14T02:14:21;15.80;;;2.25;;
26042;SDS011;13818;52.156;5.382;2023-03-14T02:16:54;7.95;;;1.10;;
26042;SDS011;13818;52.156;5.382;2023-03-14T02:19:24;9.25;;;1.33;;
26042;SDS011;13818;52.156;5.382;2023-03-14T02:22:03;8.52;;;0.93;;
26042;SDS011;13818;52.156;5.382;2023-03-14T02:24:33;14.75;;;1.52;;
26042;SDS011;13818;52.156;5.382;2023-03-14T02:27:07;4.18;;;1.20;;
26042;SDS011;13818;52.156;5.382;2023-03-14T02:29:35;16.70;;;1.98;;
26042;SDS011;13818;52.156;5.382;2023-03-14T02:32:05;12.07;;;1.02;;
26042;SDS011;13818;52.156;5.382;2023-03-14T02:34:32;5.80;;;1.02;;
26042;SDS011;13818;52.156;5.382;2023-03-14T02:37:00;7.18;;;1.33;;
26042;SDS011;13818;52.156;5.382;2023-03-14T02:39:27;7.63;;;1.50;;
26042;SDS011;13818;52.156;5.382;2023-03-14T02:42:01;11.48;;;1.13;;
26042;SDS011;13818;52.156;5.382;2023-03-14T02:44:28;7.03;;;1.05;;
26042;SDS011;13818;52.156;5.382;2023-03-14T02:46:55;5.30;;;0.88;;
26042;SDS011;13818;52.156;5.382;2023-03-14T02:49:22;9.57;;;1.17;;
26042;SDS011;13818;52.156;5.382;2023-03-14T02:51:51;6.20;;;1.13;;
26042;SDS011;13818;52.156;5.382;2023-03-14T02:54:17;3.50;;;0.93;;
26042;SDS011;13818;52.156;5.382;2023-03-14T02:56:46;7.28;;;1.25;;
26042;SDS011;13818;52.156;5.382;2023-03-14T02:59:13;5.65;;;1.15;;
26042;SDS011;13818;52.156;5.382;2023-03-14T03:01:40;8.13;;;1.30;;
26042;SDS011;13818;52.156;5.382;2023-03-14T03:04:07;6.93;;;1.45;;
26042;SDS011;13818;52.156;5.382;2023-03-14T03:06:33;7.72;;;1.05;;
26042;SDS011;13818;52.156;5.382;2023-03-14T03:09:00;8.90;;;1.83;;
26042;SDS011;13818;52.156;5.382;2023-03-14T03:11:27;6.68;;;1.20;;
26042;SDS011;13818;52.156;5.382;2023-03-14T03:13:53;6.82;;;1.30;;
26042;SDS011;13818;52.156;5.382;2023-03-14T03:16:19;13.93;;;1.58;;
26042;SDS011;13818;52.156;5.382;2023-03-14T03:18:47;9.85;;;1.58;;
26042;SDS011;13818;52.156;5.382;2023-03-14T03:21:14;10.75;;;2.00;;
26042;SDS011;13818;52.156;5.382;2023-03-14T03:23:40;8.77;;;1.38;;
26042;SDS011;13818;52.156;5.382;2023-03-14T03:26:08;8.82;;;1.83;;
26042;SDS011;13818;52.156;5.382;2023-03-14T03:28:35;6.13;;;1.67;;
26042;SDS011;13818;52.156;5.382;2023-03-14T03:31:06;6.60;;;1.50;;
26042;SDS011;13818;52.156;5.382;2023-03-14T03:33:33;11.63;;;1.80;;
26042;SDS011;13818;52.156;5.382;2023-03-14T03:36:01;8.57;;;1.90;;
26042;SDS011;13818;52.156;5.382;2023-03-14T03:38:27;9.30;;;1.70;;
26042;SDS011;13818;52.156;5.382;2023-03-14T03:40:53;6.68;;;1.42;;
26042;SDS011;13818;52.156;5.382;2023-03-14T03:43:20;7.95;;;1.67;;
26042;SDS011;13818;52.156;5.382;2023-03-14T03:45:46;9.73;;;1.67;;
26042;SDS011;13818;52.156;5.382;2023-03-14T03:48:13;5.13;;;1.40;;
26042;SDS011;13818;52.156;5.382;2023-03-14T03:50:43;10.20;;;2.15;;
26042;SDS011;13818;52.156;5.382;2023-03-14T03:53:12;4.50;;;1.75;;
26042;SDS011;13818;52.156;5.382;2023-03-14T03:55:40;8.30;;;1.70;;
26042;SDS011;13818;52.156;5.382;2023-03-14T03:58:07;7.23;;;1.70;;
26042;SDS011;13818;52.156;5.382;2023-03-14T04:00:33;9.63;;;1.98;;
26042;SDS011;13818;52.156;5.382;2023-03-14T04:03:00;12.23;;;2.10;;
26042;SDS011;13818;52.156;5.382;2023-03-14T04:05:26;8.10;;;1.95;;
26042;SDS011;13818;52.156;5.382;2023-03-14T04:07:53;4.47;;;1.40;;
26042;SDS011;13818;52.156;5.382;2023-03-14T04:10:21;8.25;;;1.75;;
26042;SDS011;13818;52.156;5.382;2023-03-14T04:12:48;10.95;;;2.00;;
26042;SDS011;13818;52.156;5.382;2023-03-14T04:15:14;7.13;;;1.25;;
26042;SDS011;13818;52.156;5.382;2023-03-14T04:17:43;8.32;;;1.60;;
26042;SDS011;13818;52.156;5.382;2023-03-14T04:20:10;16.98;;;1.63;;
26042;SDS011;13818;52.156;5.382;2023-03-14T04:22:37;8.05;;;1.75;;
26042;SDS011;13818;52.156;5.382;2023-03-14T04:25:04;7.68;;;1.30;;
26042;SDS011;13818;52.156;5.382;2023-03-14T04:27:33;5.93;;;1.23;;
26042;SDS011;13818;52.156;5.382;2023-03-14T04:29:59;10.18;;;1.50;;
26042;SDS011;13818;52.156;5.382;2023-03-14T04:32:26;7.20;;;1.50;;
26042;SDS011;13818;52.156;5.382;2023-03-14T04:34:52;9.77;;;1.48;;
26042;SDS011;13818;52.156;5.382;2023-03-14T04:37:19;8.15;;;1.67;;
26042;SDS011;13818;52.156;5.382;2023-03-14T04:39:45;15.18;;;3.05;;
26042;SDS011;13818;52.156;5.382;2023-03-14T04:42:12;11.50;;;1.95;;
26042;SDS011;13818;52.156;5.382;2023-03-14T04:44:39;9.82;;;1.48;;
26042;SDS011;13818;52.156;5.382;2023-03-14T04:47:08;10.05;;;1.38;;
26042;SDS011;13818;52.156;5.382;2023-03-14T04:49:34;11.25;;;1.73;;
26042;SDS011;13818;52.156;5.382;2023-03-14T04:52:01;5.88;;;1.70;;
26042;SDS011;13818;52.156;5.382;2023-03-14T04:54:28;5.50;;;1.20;;
26042;SDS011;13818;52.156;5.382;2023-03-14T04:56:54;9.38;;;1.63;;
26042;SDS011;13818;52.156;5.382;2023-03-14T04:59:21;10.45;;;1.90;;
26042;SDS011;13818;52.156;5.382;2023-03-14T05:01:49;8.05;;;1.70;;
26042;SDS011;13818;52.156;5.382;2023-03-14T05:04:16;6.85;;;1.45;;
26042;SDS011;13818;52.156;5.382;2023-03-14T05:06:42;8.43;;;1.38;;
26042;SDS011;13818;52.156;5.382;2023-03-14T05:09:09;9.57;;;1.60;;
26042;SDS011;13818;52.156;5.382;2023-03-14T05:11:35;7.30;;;1.40;;
26042;SDS011;13818;52.156;5.382;2023-03-14T05:14:02;7.25;;;1.80;;
26042;SDS011;13818;52.156;5.382;2023-03-14T05:16:28;9.60;;;1.85;;
26042;SDS011;13818;52.156;5.382;2023-03-14T05:18:56;4.57;;;1.90;;
26042;SDS011;13818;52.156;5.382;2023-03-14T05:21:23;6.80;;;1.60;;
26042;SDS011;13818;52.156;5.382;2023-03-14T05:23:49;4.63;;;1.40;;
26042;SDS011;13818;52.156;5.382;2023-03-14T05:26:16;8.02;;;1.80;;
26042;SDS011;13818;52.156;5.382;2023-03-14T05:28:43;7.40;;;2.10;;
26042;SDS011;13818;52.156;5.382;2023-03-14T05:31:09;7.90;;;2.10;;
26042;SDS011;13818;52.156;5.382;2023-03-14T05:33:36;10.70;;;2.10;;
26042;SDS011;13818;52.156;5.382;2023-03-14T05:36:04;6.85;;;1.92;;
26042;SDS011;13818;52.156;5.382;2023-03-14T05:38:31;8.07;;;1.90;;
26042;SDS011;13818;52.156;5.382;2023-03-14T05:40:57;6.65;;;2.00;;
26042;SDS011;13818;52.156;5.382;2023-03-14T05:43:24;6.65;;;1.92;;
26042;SDS011;13818;52.156;5.382;2023-03-14T05:45:51;10.27;;;2.25;;
26042;SDS011;13818;52.156;5.382;2023-03-14T05:48:18;11.68;;;2.83;;
26042;SDS011;13818;52.156;5.382;2023-03-14T05:50:46;16.10;;;2.58;;
26042;SDS011;13818;52.156;5.382;2023-03-14T05:53:14;7.05;;;2.25;;
26042;SDS011;13818;52.156;5.382;2023-03-14T05:55:41;9.43;;;2.42;;
26042;SDS011;13818;52.156;5.382;2023-03-14T05:58:07;12.13;;;2.00;;
26042;SDS011;13818;52.156;5.382;2023-03-14T06:00:34;8.77;;;2.67;;
26042;SDS011;13818;52.156;5.382;2023-03-14T06:03:00;8.07;;;2.53;;
26042;SDS011;13818;52.156;5.382;2023-03-14T06:05:27;7.60;;;2.78;;
26042;SDS011;13818;52.156;5.382;2023-03-14T06:07:53;13.02;;;3.15;;
26042;SDS011;13818;52.156;5.382;2023-03-14T06:10:21;10.40;;;3.17;;
26042;SDS011;13818;52.156;5.382;2023-03-14T06:12:47;12.88;;;3.03;;
26042;SDS011;13818;52.156;5.382;2023-03-14T06:15:14;11.27;;;3.53;;
26042;SDS011;13818;52.156;5.382;2023-03-14T06:17:41;13.05;;;3.88;;
26042;SDS011;13818;52.156;5.382;2023-03-14T06:20:08;7.78;;;3.38;;
26042;SDS011;13818;52.156;5.382;2023-03-14T06:22:36;13.57;;;3.53;;
26042;SDS011;13818;52.156;5.382;2023-03-14T06:25:03;13.73;;;3.88;;
26042;SDS011;13818;52.156;5.382;2023-03-14T06:27:32;11.82;;;3.85;;
26042;SDS011;13818;52.156;5.382;2023-03-14T06:29:58;12.15;;;4.32;;
26042;SDS011;13818;52.156;5.382;2023-03-14T06:32:25;20.10;;;4.65;;
26042;SDS011;13818;52.156;5.382;2023-03-14T06:34:51;12.98;;;4.18;;
26042;SDS011;13818;52.156;5.382;2023-03-14T06:37:18;16.70;;;4.95;;
26042;SDS011;13818;52.156;5.382;2023-03-14T06:39:44;15.38;;;4.60;;
26042;SDS011;13818;52.156;5.382;2023-03-14T06:42:11;10.65;;;3.13;;
26042;SDS011;13818;52.156;5.382;2023-03-14T06:44:39;3.78;;;1.10;;
26042;SDS011;13818;52.156;5.382;2023-03-14T06:47:05;2.33;;;0.80;;
26042;SDS011;13818;52.156;5.382;2023-03-14T06:49:32;1.35;;;0.40;;
26042;SDS011;13818;52.156;5.382;2023-03-14T06:51:58;3.88;;;0.70;;
26042;SDS011;13818;52.156;5.382;2023-03-14T06:54:25;4.70;;;0.98;;
26042;SDS011;13818;52.156;5.382;2023-03-14T06:56:51;3.03;;;0.65;;
26042;SDS011;13818;52.156;5.382;2023-03-14T06:59:18;1.48;;;0.47;;
26042;SDS011;13818;52.156;5.382;2023-03-14T07:01:46;3.45;;;0.57;;
26042;SDS011;13818;52.156;5.382;2023-03-14T07:04:13;1.37;;;0.60;;
26042;SDS011;13818;52.156;5.382;2023-03-14T07:06:40;3.10;;;0.93;;
26042;SDS011;13818;52.156;5.382;2023-03-14T07:09:09;1.27;;;0.95;;
26042;SDS011;13818;52.156;5.382;2023-03-14T07:11:36;1.50;;;0.60;;
26042;SDS011;13818;52.156;5.382;2023-03-14T07:14:02;1.60;;;0.45;;
26042;SDS011;13818;52.156;5.382;2023-03-14T07:16:29;7.45;;;0.75;;
26042;SDS011;13818;52.156;5.382;2023-03-14T07:19:00;3.20;;;0.50;;
26042;SDS011;13818;52.156;5.382;2023-03-14T07:21:27;4.13;;;0.60;;
26042;SDS011;13818;52.156;5.382;2023-03-14T07:23:53;6.03;;;1.05;;
26042;SDS011;13818;52.156;5.382;2023-03-14T07:26:20;4.03;;;0.70;;
26042;SDS011;13818;52.156;5.382;2023-03-14T07:28:46;2.25;;;0.40;;
26042;SDS011;13818;52.156;5.382;2023-03-14T07:31:13;3.38;;;0.50;;
26042;SDS011;13818;52.156;5.382;2023-03-14T07:33:39;1.05;;;0.50;;
26042;SDS011;13818;52.156;5.382;2023-03-14T07:36:08;1.40;;;0.50;;
26042;SDS011;13818;52.156;5.382;2023-03-14T07:38:35;3.65;;;0.95;;
26042;SDS011;13818;52.156;5.382;2023-03-14T07:41:02;4.50;;;0.57;;
26042;SDS011;13818;52.156;5.382;2023-03-14T07:43:30;2.38;;;0.38;;
26042;SDS011;13818;52.156;5.382;2023-03-14T07:45:56;1.70;;;0.43;;
26042;SDS011;13818;52.156;5.382;2023-03-14T07:48:23;1.63;;;0.63;;
26042;SDS011;13818;52.156;5.382;2023-03-14T07:50:52;5.38;;;0.80;;
26042;SDS011;13818;52.156;5.382;2023-03-14T07:53:21;2.03;;;0.90;;
26042;SDS011;13818;52.156;5.382;2023-03-14T07:55:50;1.48;;;0.25;;
26042;SDS011;13818;52.156;5.382;2023-03-14T07:58:16;2.50;;;0.37;;
26042;SDS011;13818;52.156;5.382;2023-03-14T08:00:43;2.88;;;0.40;;
26042;SDS011;13818;52.156;5.382;2023-03-14T08:03:10;1.00;;;0.30;;
26042;SDS011;13818;52.156;5.382;2023-03-14T08:05:37;2.58;;;0.38;;
26042;SDS011;13818;52.156;5.382;2023-03-14T08:08:03;7.53;;;0.65;;
26042;SDS011;13818;52.156;5.382;2023-03-14T08:10:32;8.82;;;1.05;;
26042;SDS011;13818;52.156;5.382;2023-03-14T08:12:59;8.25;;;1.48;;
26042;SDS011;13818;52.156;5.382;2023-03-14T08:15:28;5.28;;;0.50;;
26042;SDS011;13818;52.156;5.382;2023-03-14T08:17:55;5.28;;;0.55;;
26042;SDS011;13818;52.156;5.382;2023-03-14T08:20:22;3.30;;;0.20;;
26042;SDS011;13818;52.156;5.382;2023-03-14T08:22:51;4.10;;;0.38;;
26042;SDS011;13818;52.156;5.382;2023-03-14T08:25:18;4.95;;;1.20;;
26042;SDS011;13818;52.156;5.382;2023-03-14T08:27:46;1.77;;;0.52;;
26042;SDS011;13818;52.156;5.382;2023-03-14T08:30:16;7.55;;;0.40;;
26042;SDS011;13818;52.156;5.382;2023-03-14T08:32:44;0.82;;;0.30;;
26042;SDS011;13818;52.156;5.382;2023-03-14T08:35:10;3.20;;;0.40;;
26042;SDS011;13818;52.156;5.382;2023-03-14T08:37:37;5.13;;;0.30;;
26042;SDS011;13818;52.156;5.382;2023-03-14T08:40:04;1.60;;;0.22;;
26042;SDS011;13818;52.156;5.382;2023-03-14T08:42:33;1.90;;;0.40;;
26042;SDS011;13818;52.156;5.382;2023-03-14T08:45:01;4.55;;;0.60;;
26042;SDS011;13818;52.156;5.382;2023-03-14T08:47:28;6.45;;;0.25;;
26042;SDS011;13818;52.156;5.382;2023-03-14T08:49:55;2.67;;;0.25;;
26042;SDS011;13818;52.156;5.382;2023-03-14T08:52:22;2.80;;;0.30;;
26042;SDS011;13818;52.156;5.382;2023-03-14T08:54:48;3.63;;;0.28;;
26042;SDS011;13818;52.156;5.382;2023-03-14T08:57:15;0.38;;;0.30;;
26042;SDS011;13818;52.156;5.382;2023-03-14T08:59:41;4.30;;;0.50;;
26042;SDS011;13818;52.156;5.382;2023-03-14T09:02:10;6.05;;;0.75;;
26042;SDS011;13818;52.156;5.382;2023-03-14T09:04:37;3.03;;;0.35;;
26042;SDS011;13818;52.156;5.382;2023-03-14T09:07:04;4.90;;;0.60;;
26042;SDS011;13818;52.156;5.382;2023-03-14T09:09:30;6.40;;;0.73;;
26042;SDS011;13818;52.156;5.382;2023-03-14T09:11:57;5.10;;;0.73;;
26042;SDS011;13818;52.156;5.382;2023-03-14T09:14:23;7.20;;;0.70;;
26042;SDS011;13818;52.156;5.382;2023-03-14T09:16:50;6.05;;;0.68;;
26042;SDS011;13818;52.156;5.382;2023-03-14T09:19:18;7.68;;;0.63;;
26042;SDS011;13818;52.156;5.382;2023-03-14T09:21:44;5.88;;;1.17;;
26042;SDS011;13818;52.156;5.382;2023-03-14T09:24:11;7.43;;;0.65;;
26042;SDS011;13818;52.156;5.382;2023-03-14T09:26:37;4.30;;;0.57;;
26042;SDS011;13818;52.156;5.382;2023-03-14T09:29:04;9.13;;;1.13;;
26042;SDS011;13818;52.156;5.382;2023-03-14T09:31:31;10.90;;;1.10;;
26042;SDS011;13818;52.156;5.382;2023-03-14T09:33:57;7.85;;;1.55;;
26042;SDS011;13818;52.156;5.382;2023-03-14T09:36:25;8.73;;;1.27;;
26042;SDS011;13818;52.156;5.382;2023-03-14T09:38:51;13.60;;;0.80;;
26042;SDS011;13818;52.156;5.382;2023-03-14T09:41:18;10.50;;;1.65;;
26042;SDS011;13818;52.156;5.382;2023-03-14T09:43:50;12.07;;;1.08;;
26042;SDS011;13818;52.156;5.382;2023-03-14T09:46:26;5.07;;;1.00;;
26042;SDS011;13818;52.156;5.382;2023-03-14T09:48:55;13.65;;;0.98;;
26042;SDS011;13818;52.156;5.382;2023-03-14T09:51:21;9.15;;;1.10;;
26042;SDS011;13818;52.156;5.382;2023-03-14T09:53:50;5.93;;;2.05;;
26042;SDS011;13818;52.156;5.382;2023-03-14T09:56:18;6.82;;;1.13;;
26042;SDS011;13818;52.156;5.382;2023-03-14T09:58:48;6.50;;;0.60;;
26042;SDS011;13818;52.156;5.382;2023-03-14T10:01:20;10.82;;;1.15;;
26042;SDS011;13818;52.156;5.382;2023-03-14T10:03:51;14.90;;;2.10;;
26042;SDS011;13818;52.156;5.382;2023-03-14T10:06:21;14.57;;;2.20;;
26042;SDS011;13818;52.156;5.382;2023-03-14T10:08:51;2.47;;;1.10;;
26042;SDS011;13818;52.156;5.382;2023-03-14T10:11:18;6.43;;;1.10;;
26042;SDS011;13818;52.156;5.382;2023-03-14T10:13:49;9.38;;;0.88;;
26042;SDS011;13818;52.156;5.382;2023-03-14T10:16:28;9.43;;;1.92;;
26042;SDS011;13818;52.156;5.382;2023-03-14T10:19:00;8.38;;;1.38;;
26042;SDS011;13818;52.156;5.382;2023-03-14T10:21:28;14.68;;;1.45;;
26042;SDS011;13818;52.156;5.382;2023-03-14T10:24:08;9.68;;;1.05;;
26042;SDS011;13818;52.156;5.382;2023-03-14T10:26:35;6.60;;;0.82;;
26042;SDS011;13818;52.156;5.382;2023-03-14T10:29:03;8.00;;;1.10;;
26042;SDS011;13818;52.156;5.382;2023-03-14T10:31:45;14.50;;;2.33;;
26042;SDS011;13818;52.156;5.382;2023-03-14T10:34:15;16.55;;;1.70;;
26042;SDS011;13818;52.156;5.382;2023-03-14T10:36:43;11.80;;;1.55;;
26042;SDS011;13818;52.156;5.382;2023-03-14T10:39:23;10.07;;;1.33;;
26042;SDS011;13818;52.156;5.382;2023-03-14T10:41:53;14.30;;;1.52;;
26042;SDS011;13818;52.156;5.382;2023-03-14T10:44:22;6.80;;;0.90;;
26042;SDS011;13818;52.156;5.382;2023-03-14T10:46:55;4.72;;;2.05;;
26042;SDS011;13818;52.156;5.382;2023-03-14T10:49:26;17.63;;;1.48;;
26042;SDS011;13818;52.156;5.382;2023-03-14T10:51:54;13.48;;;1.83;;
26042;SDS011;13818;52.156;5.382;2023-03-14T10:54:21;10.70;;;1.85;;
26042;SDS011;13818;52.156;5.382;2023-03-14T10:56:56;25.33;;;2.97;;
26042;SDS011;13818;52.156;5.382;2023-03-14T10:59:23;12.82;;;1.67;;
26042;SDS011;13818;52.156;5.382;2023-03-14T11:01:52;13.57;;;1.42;;
26042;SDS011;13818;52.156;5.382;2023-03-14T11:04:27;9.52;;;1.23;;
26042;SDS011;13818;52.156;5.382;2023-03-14T11:07:14;4.72;;;1.02;;
26042;SDS011;13818;52.156;5.382;2023-03-14T11:09:53;16.13;;;1.80;;
26042;SDS011;13818;52.156;5.382;2023-03-14T11:12:34;4.20;;;0.63;;
26042;SDS011;13818;52.156;5.382;2023-03-14T11:15:10;20.45;;;1.73;;
26042;SDS011;13818;52.156;5.382;2023-03-14T11:17:46;11.18;;;2.17;;
26042;SDS011;13818;52.156;5.382;2023-03-14T11:20:31;3.88;;;0.70;;
26042;SDS011;13818;52.156;5.382;2023-03-14T11:23:07;11.43;;;2.20;;
26042;SDS011;13818;52.156;5.382;2023-03-14T11:25:41;6.57;;;1.33;;
26042;SDS011;13818;52.156;5.382;2023-03-14T11:28:17;5.13;;;0.98;;
26042;SDS011;13818;52.156;5.382;2023-03-14T11:30:50;4.53;;;1.00;;
26042;SDS011;13818;52.156;5.382;2023-03-14T11:33:18;8.05;;;0.55;;
26042;SDS011;13818;52.156;5.382;2023-03-14T11:35:52;10.93;;;1.98;;
26042;SDS011;13818;52.156;5.382;2023-03-14T11:38:27;1.80;;;0.43;;
26042;SDS011;13818;52.156;5.382;2023-03-14T11:40:58;7.85;;;0.73;;
26042;SDS011;13818;52.156;5.382;2023-03-14T11:43:26;13.70;;;1.13;;
26042;SDS011;13818;52.156;5.382;2023-03-14T11:45:56;10.73;;;1.30;;
26042;SDS011;13818;52.156;5.382;2023-03-14T11:48:29;2.20;;;0.55;;
26042;SDS011;13818;52.156;5.382;2023-03-14T11:51:04;15.05;;;2.38;;
26042;SDS011;13818;52.156;5.382;2023-03-14T11:53:38;11.57;;;1.23;;
26042;SDS011;13818;52.156;5.382;2023-03-14T11:56:11;4.30;;;0.55;;
26042;SDS011;13818;52.156;5.382;2023-03-14T11:58:47;5.05;;;0.77;;
26042;SDS011;13818;52.156;5.382;2023-03-14T12:01:20;5.95;;;1.95;;
26042;SDS011;13818;52.156;5.382;2023-03-14T12:03:52;7.28;;;1.33;;
26042;SDS011;13818;52.156;5.382;2023-03-14T12:06:24;6.47;;;1.17;;
26042;SDS011;13818;52.156;5.382;2023-03-14T12:08:58;6.88;;;0.93;;
26042;SDS011;13818;52.156;5.382;2023-03-14T12:11:32;6.80;;;0.95;;
26042;SDS011;13818;52.156;5.382;2023-03-14T12:14:02;6.15;;;0.68;;
26042;SDS011;13818;52.156;5.382;2023-03-14T12:16:33;6.95;;;1.08;;
26042;SDS011;13818;52.156;5.382;2023-03-14T12:24:21;4.65;;;0.50;;
26042;SDS011;13818;52.156;5.382;2023-03-14T12:26:54;3.17;;;0.65;;
26042;SDS011;13818;52.156;5.382;2023-03-14T12:29:21;1.80;;;0.35;;
26042;SDS011;13818;52.156;5.382;2023-03-14T12:31:49;3.70;;;0.60;;
26042;SDS011;13818;52.156;5.382;2023-03-14T12:34:32;11.98;;;0.50;;
26042;SDS011;13818;52.156;5.382;2023-03-14T12:37:05;4.53;;;0.70;;
26042;SDS011;13818;52.156;5.382;2023-03-14T12:39:45;2.15;;;0.30;;
26042;SDS011;13818;52.156;5.382;2023-03-14T12:42:20;0.93;;;0.20;;
26042;SDS011;13818;52.156;5.382;2023-03-14T12:45:13;2.47;;;0.20;;
26042;SDS011;13818;52.156;5.382;2023-03-14T12:47:52;5.40;;;1.20;;
26042;SDS011;13818;52.156;5.382;2023-03-14T12:50:22;1.25;;;0.40;;
26042;SDS011;13818;52.156;5.382;2023-03-14T12:52:58;2.13;;;0.40;;
26042;SDS011;13818;52.156;5.382;2023-03-14T12:55:44;2.28;;;0.60;;
26042;SDS011;13818;52.156;5.382;2023-03-14T12:58:17;3.53;;;0.30;;
26042;SDS011;13818;52.156;5.382;2023-03-14T13:00:55;1.90;;;0.65;;
26042;SDS011;13818;52.156;5.382;2023-03-14T13:03:23;2.40;;;0.60;;
26042;SDS011;13818;52.156;5.382;2023-03-14T13:05:53;0.20;;;0.00;;
26042;SDS011;13818;52.156;5.382;2023-03-14T13:10:59;2.10;;;0.57;;
26042;SDS011;13818;52.156;5.382;2023-03-14T13:13:28;1.10;;;0.30;;
26042;SDS011;13818;52.156;5.382;2023-03-14T13:15:56;7.70;;;0.90;;
26042;SDS011;13818;52.156;5.382;2023-03-14T13:18:27;3.70;;;0.73;;
26042;SDS011;13818;52.156;5.382;2023-03-14T13:20:59;1.25;;;0.55;;
26042;SDS011;13818;52.156;5.382;2023-03-14T13:23:32;1.75;;;0.28;;
26042;SDS011;13818;52.156;5.382;2023-03-14T13:26:00;2.88;;;1.05;;
26042;SDS011;13818;52.156;5.382;2023-03-14T13:28:26;6.88;;;0.68;;
26042;SDS011;13818;52.156;5.382;2023-03-14T13:30:57;2.63;;;0.47;;
26042;SDS011;13818;52.156;5.382;2023-03-14T13:33:24;7.88;;;1.00;;
26042;SDS011;13818;52.156;5.382;2023-03-14T13:35:54;2.47;;;0.50;;
26042;SDS011;13818;52.156;5.382;2023-03-14T13:38:22;1.38;;;0.40;;
26042;SDS011;13818;52.156;5.382;2023-03-14T13:40:50;2.20;;;0.50;;
26042;SDS011;13818;52.156;5.382;2023-03-14T13:43:19;4.18;;;0.70;;
26042;SDS011;13818;52.156;5.382;2023-03-14T13:45:54;2.50;;;0.50;;
26042;SDS011;13818;52.156;5.382;2023-03-14T13:48:22;7.07;;;0.70;;
26042;SDS011;13818;52.156;5.382;2023-03-14T13:50:53;4.47;;;1.05;;
26042;SDS011;13818;52.156;5.382;2023-03-14T13:55:49;4.63;;;0.75;;
26042;SDS011;13818;52.156;5.382;2023-03-14T13:58:21;4.40;;;0.70;;
26042;SDS011;13818;52.156;5.382;2023-03-14T14:00:56;1.30;;;0.35;;
26042;SDS011;13818;52.156;5.382;2023-03-14T14:03:26;13.45;;;1.65;;
26042;SDS011;13818;52.156;5.382;2023-03-14T14:05:55;2.97;;;0.45;;
26042;SDS011;13818;52.156;5.382;2023-03-14T14:08:22;5.15;;;0.55;;
26042;SDS011;13818;52.156;5.382;2023-03-14T14:10:50;5.85;;;1.15;;
26042;SDS011;13818;52.156;5.382;2023-03-14T14:13:22;1.88;;;0.47;;
26042;SDS011;13818;52.156;5.382;2023-03-14T14:15:51;6.70;;;1.30;;
26042;SDS011;13818;52.156;5.382;2023-03-14T14:18:28;8.55;;;0.88;;
26042;SDS011;13818;52.156;5.382;2023-03-14T14:20:57;2.90;;;0.60;;
26042;SDS011;13818;52.156;5.382;2023-03-14T14:23:24;4.80;;;0.75;;
26042;SDS011;13818;52.156;5.382;2023-03-14T14:25:54;3.83;;;1.20;;
26042;SDS011;13818;52.156;5.382;2023-03-14T14:28:23;5.37;;;0.70;;
26042;SDS011;13818;52.156;5.382;2023-03-14T14:30:59;4.35;;;0.73;;
26042;SDS011;13818;52.156;5.382;2023-03-14T14:33:39;1.02;;;0.15;;
26042;SDS011;13818;52.156;5.382;2023-03-14T14:36:20;3.08;;;0.70;;
26042;SDS011;13818;52.156;5.382;2023-03-14T14:38:49;3.40;;;0.65;;
26042;SDS011;13818;52.156;5.382;2023-03-14T14:41:16;5.60;;;0.98;;
26042;SDS011;13818;52.156;5.382;2023-03-14T14:43:43;2.30;;;0.40;;
26042;SDS011;13818;52.156;5.382;2023-03-14T14:46:13;1.40;;;0.30;;
26042;SDS011;13818;52.156;5.382;2023-03-14T14:48:45;4.15;;;0.77;;
26042;SDS011;13818;52.156;5.382;2023-03-14T14:51:22;3.22;;;0.77;;
26042;SDS011;13818;52.156;5.382;2023-03-14T14:53:59;3.50;;;0.80;;
26042;SDS011;13818;52.156;5.382;2023-03-14T14:56:28;4.30;;;0.68;;
26042;SDS011;13818;52.156;5.382;2023-03-14T14:58:57;2.92;;;0.70;;
26042;SDS011;13818;52.156;5.382;2023-03-14T15:01:25;7.15;;;0.57;;
26042;SDS011;13818;52.156;5.382;2023-03-14T15:03:58;9.43;;;0.82;;
26042;SDS011;13818;52.156;5.382;2023-03-14T15:06:25;4.97;;;0.40;;